Terminal Aerodrome Forecast
Issued by NWS

Home | Current Version | Previous Version | Text Only | Print | Product List | Glossary On
Versions: 1 2 3 4 5 6 7 8 9 10 11 12 13 14 15
000
FTUS44 KLUB 031737
TAFCDS
TAF
KCDS 031737Z 0318/0418 07008KT 6SM -SHRA BR BKN008 OVC015
     FM040200 36005KT 2SM -SHRA BR BKN005 OVC007
     FM041300 35010KT 6SM BR FEW007 SCT015 BKN050=

USA.gov is the U.S. government's official web portal to all federal, state and local government web resources and services.